This is the latest recevied weather packets stored in our database for station/object SQ8SW-4. If no packets are shown the sender has not sent any weather packets the latest 10 day(s).
| Time | Temp. | Humidity | Pressure | Rain* | Wind** | Luminosity | Snow |
|---|---|---|---|---|---|---|---|
| 1778094800 | 20.56° C | 52% | 980 hPa | - | - | - | - |
| 1778093898 | 21.11° C | 52% | 979 hPa | - | - | - | - |
| 1778092996 | 21.11° C | 51% | 979 hPa | - | - | - | - |
| 1778092094 | 21.67° C | 50% | 979 hPa | - | - | - | - |
| 1778091191 | 22.22° C | 49% | 979 hPa | - | - | - | - |
| 1778090289 | 22.78° C | 48% | 979 hPa | - | - | - | - |
| 1778089387 | 23.33° C | 46% | 979 hPa | - | - | - | - |
| 1778088485 | 24.44° C | 44% | 979 hPa | - | - | - | - |
| 1778087583 | 25.56° C | 43% | 979 hPa | - | - | - | - |
| 1778086680 | 27.22° C | 40% | 979 hPa | - | - | - | - |
| 1778085778 | 28.89° C | 36% | 979 hPa | - | - | - | - |
| 1778084876 | 30° C | 34% | 979 hPa | - | - | - | - |
| 1778083974 | 30.56° C | 32% | 979 hPa | - | - | - | - |
| 1778083071 | 30.56° C | 31% | 979 hPa | - | - | - | - |
| 1778082169 | 29.44° C | 32% | 979 hPa | - | - | - | - |
| 1778081267 | 28.33° C | 31% | 979 hPa | - | - | - | - |
| 1778080365 | 26.67° C | 35% | 979 hPa | - | - | - | - |
| 1778079463 | 26.11° C | 40% | 979 hPa | - | - | - | - |
| 1778078560 | 26.11° C | 39% | 979 hPa | - | - | - | - |
| 1778077658 | 26.11° C | 38% | 979 hPa | - | - | - | - |
| 1778076756 | 26.11° C | 37% | 979 hPa | - | - | - | - |
| 1778075854 | 26.11° C | 37% | 979 hPa | - | - | - | - |
| 1778074951 | 25.56° C | 37% | 979 hPa | - | - | - | - |
| 1778074049 | 25.56° C | 38% | 980 hPa | - | - | - | - |
| 1778073147 | 26.11° C | 37% | 980 hPa | - | - | - | - |
* Rain since midnight (hover to see other rain measurements)
** Current wind speed in m/s (hover to see current wind gust speed)